sensor_id;sensor_type;location;lat;lon;timestamp;pressure;altitude;pressure_sealevel;temperature;humidity
63554;BME280;49699;48.072;7.800;2023-03-16T00:00:19;99790.00;;;1.92;77.51
63554;BME280;49699;48.072;7.800;2023-03-16T00:02:44;99797.84;;;1.82;77.50
63554;BME280;49699;48.072;7.800;2023-03-16T00:05:10;99804.88;;;1.72;77.82
63554;BME280;49699;48.072;7.800;2023-03-16T00:07:37;99798.94;;;1.68;78.14
63554;BME280;49699;48.072;7.800;2023-03-16T00:10:02;99790.47;;;1.62;78.38
63554;BME280;49699;48.072;7.800;2023-03-16T00:12:28;99801.69;;;1.56;78.42
63554;BME280;49699;48.072;7.800;2023-03-16T00:14:53;99811.16;;;1.51;78.75
63554;BME280;49699;48.072;7.800;2023-03-16T00:17:18;99811.25;;;1.45;78.94
63554;BME280;49699;48.072;7.800;2023-03-16T00:19:45;99812.16;;;1.43;79.13
63554;BME280;49699;48.072;7.800;2023-03-16T00:22:11;99802.75;;;1.43;79.08
63554;BME280;49699;48.072;7.800;2023-03-16T00:24:38;99797.56;;;1.46;78.92
63554;BME280;49699;48.072;7.800;2023-03-16T00:27:04;99816.34;;;1.48;78.83
63554;BME280;49699;48.072;7.800;2023-03-16T00:29:29;99814.63;;;1.49;78.61
63554;BME280;49699;48.072;7.800;2023-03-16T00:31:58;99823.16;;;1.51;78.73
63554;BME280;49699;48.072;7.800;2023-03-16T00:34:24;99812.88;;;1.52;78.38
63554;BME280;49699;48.072;7.800;2023-03-16T00:36:49;99806.84;;;1.55;78.48
63554;BME280;49699;48.072;7.800;2023-03-16T00:39:14;99811.91;;;1.59;78.26
63554;BME280;49699;48.072;7.800;2023-03-16T00:41:40;99805.88;;;1.62;78.19
63554;BME280;49699;48.072;7.800;2023-03-16T00:44:06;99797.38;;;1.60;78.13
63554;BME280;49699;48.072;7.800;2023-03-16T00:46:33;99811.06;;;1.59;78.12
63554;BME280;49699;48.072;7.800;2023-03-16T00:48:59;99800.00;;;1.55;78.20
63554;BME280;49699;48.072;7.800;2023-03-16T00:51:26;99791.47;;;1.55;78.33
63554;BME280;49699;48.072;7.800;2023-03-16T00:53:52;99794.06;;;1.52;78.14
63554;BME280;49699;48.072;7.800;2023-03-16T00:56:17;99800.06;;;1.51;78.22
63554;BME280;49699;48.072;7.800;2023-03-16T00:58:42;99793.25;;;1.50;78.36
63554;BME280;49699;48.072;7.800;2023-03-16T01:01:17;99792.38;;;1.51;78.17
63554;BME280;49699;48.072;7.800;2023-03-16T01:03:43;99795.78;;;1.51;77.92
63554;BME280;49699;48.072;7.800;2023-03-16T01:06:09;99790.66;;;1.50;78.06
63554;BME280;49699;48.072;7.800;2023-03-16T01:08:36;99788.13;;;1.48;78.23
63554;BME280;49699;48.072;7.800;2023-03-16T01:11:05;99788.09;;;1.50;77.97
63554;BME280;49699;48.072;7.800;2023-03-16T01:13:31;99781.25;;;1.50;77.91
63554;BME280;49699;48.072;7.800;2023-03-16T01:15:58;99783.84;;;1.49;77.87
63554;BME280;49699;48.072;7.800;2023-03-16T01:18:24;99787.25;;;1.49;77.92
63554;BME280;49699;48.072;7.800;2023-03-16T01:20:49;99776.19;;;1.46;78.03
63554;BME280;49699;48.072;7.800;2023-03-16T01:23:18;99775.34;;;1.45;78.03
63554;BME280;49699;48.072;7.800;2023-03-16T01:25:44;99776.22;;;1.44;78.06
63554;BME280;49699;48.072;7.800;2023-03-16T01:28:17;99767.75;;;1.41;78.14
63554;BME280;49699;48.072;7.800;2023-03-16T01:30:43;99764.41;;;1.35;78.34
63554;BME280;49699;48.072;7.800;2023-03-16T01:33:08;99768.72;;;1.32;78.44
63554;BME280;49699;48.072;7.800;2023-03-16T01:35:34;99765.41;;;1.25;78.54
63554;BME280;49699;48.072;7.800;2023-03-16T01:37:59;99771.47;;;1.20;78.83
63554;BME280;49699;48.072;7.800;2023-03-16T01:40:25;99774.09;;;1.15;79.12
63554;BME280;49699;48.072;7.800;2023-03-16T01:42:58;99771.59;;;1.09;79.12
63554;BME280;49699;48.072;7.800;2023-03-16T01:48:08;99759.75;;;1.03;79.13
63554;BME280;49699;48.072;7.800;2023-03-16T01:50:34;99758.03;;;1.02;79.38
63554;BME280;49699;48.072;7.800;2023-03-16T01:52:59;99752.94;;;0.99;79.59
63554;BME280;49699;48.072;7.800;2023-03-16T01:55:25;99756.41;;;0.95;79.51
63554;BME280;49699;48.072;7.800;2023-03-16T01:57:51;99759.03;;;0.92;79.48
63554;BME280;49699;48.072;7.800;2023-03-16T02:00:18;99759.09;;;0.89;79.77
63554;BME280;49699;48.072;7.800;2023-03-16T02:03:00;99764.25;;;0.85;79.80
63554;BME280;49699;48.072;7.800;2023-03-16T02:06:20;99761.78;;;0.79;79.83
63554;BME280;49699;48.072;7.800;2023-03-16T02:08:28;99757.56;;;0.73;80.12
63554;BME280;49699;48.072;7.800;2023-03-16T02:10:55;99758.53;;;0.66;80.10
63554;BME280;49699;48.072;7.800;2023-03-16T02:13:24;99756.84;;;0.62;80.20
63554;BME280;49699;48.072;7.800;2023-03-16T02:15:51;99762.03;;;0.57;80.42
63554;BME280;49699;48.072;7.800;2023-03-16T02:18:17;99760.41;;;0.53;80.44
63554;BME280;49699;48.072;7.800;2023-03-16T02:20:47;99757.03;;;0.50;80.68
63554;BME280;49699;48.072;7.800;2023-03-16T02:23:15;99755.34;;;0.47;80.64
63554;BME280;49699;48.072;7.800;2023-03-16T02:25:50;99751.94;;;0.47;80.71
63554;BME280;49699;48.072;7.800;2023-03-16T02:28:29;99749.38;;;0.45;80.48
63554;BME280;49699;48.072;7.800;2023-03-16T02:30:56;99745.13;;;0.44;80.65
63554;BME280;49699;48.072;7.800;2023-03-16T02:33:22;99736.59;;;0.42;80.74
63554;BME280;49699;48.072;7.800;2023-03-16T02:35:48;99739.22;;;0.38;80.90
63554;BME280;49699;48.072;7.800;2023-03-16T02:38:14;99738.41;;;0.36;81.01
63554;BME280;49699;48.072;7.800;2023-03-16T02:40:51;99734.19;;;0.33;80.88
63554;BME280;49699;48.072;7.800;2023-03-16T02:43:23;99736.72;;;0.33;80.83
63554;BME280;49699;48.072;7.800;2023-03-16T02:46:01;99733.31;;;0.32;81.02
63554;BME280;49699;48.072;7.800;2023-03-16T02:50:58;99725.66;;;0.31;81.12
63554;BME280;49699;48.072;7.800;2023-03-16T02:53:25;99722.25;;;0.32;80.91
63554;BME280;49699;48.072;7.800;2023-03-16T02:55:51;99712.00;;;0.32;81.18
63554;BME280;49699;48.072;7.800;2023-03-16T02:58:16;99711.13;;;0.33;81.23
63554;BME280;49699;48.072;7.800;2023-03-16T03:00:43;99703.44;;;0.33;80.92
63554;BME280;49699;48.072;7.800;2023-03-16T03:03:09;99709.41;;;0.35;80.96
63554;BME280;49699;48.072;7.800;2023-03-16T03:05:36;99708.50;;;0.36;81.21
63554;BME280;49699;48.072;7.800;2023-03-16T03:08:02;99706.84;;;0.33;81.22
63554;BME280;49699;48.072;7.800;2023-03-16T03:10:27;99708.56;;;0.33;81.25
63554;BME280;49699;48.072;7.800;2023-03-16T03:12:53;99702.59;;;0.32;81.30
63554;BME280;49699;48.072;7.800;2023-03-16T03:15:19;99704.31;;;0.32;81.12
63554;BME280;49699;48.072;7.800;2023-03-16T03:18:07;99704.31;;;0.32;81.06
63554;BME280;49699;48.072;7.800;2023-03-16T03:20:33;99694.09;;;0.29;81.35
63554;BME280;49699;48.072;7.800;2023-03-16T03:22:58;99694.97;;;0.28;80.95
63554;BME280;49699;48.072;7.800;2023-03-16T03:25:23;99692.41;;;0.28;81.20
63554;BME280;49699;48.072;7.800;2023-03-16T03:27:51;99692.41;;;0.28;81.07
63554;BME280;49699;48.072;7.800;2023-03-16T03:30:20;99688.13;;;0.30;81.19
63554;BME280;49699;48.072;7.800;2023-03-16T03:32:46;99688.09;;;0.31;80.90
63554;BME280;49699;48.072;7.800;2023-03-16T03:35:12;99697.50;;;0.29;81.08
63554;BME280;49699;48.072;7.800;2023-03-16T03:37:38;99689.84;;;0.28;81.25
63554;BME280;49699;48.072;7.800;2023-03-16T03:40:04;99700.94;;;0.28;80.85
63554;BME280;49699;48.072;7.800;2023-03-16T03:42:30;99689.00;;;0.27;80.97
63554;BME280;49699;48.072;7.800;2023-03-16T03:44:55;99692.44;;;0.26;80.74
63554;BME280;49699;48.072;7.800;2023-03-16T03:47:20;99685.63;;;0.24;80.74
63554;BME280;49699;48.072;7.800;2023-03-16T03:49:46;99695.00;;;0.23;80.90
63554;BME280;49699;48.072;7.800;2023-03-16T03:52:11;99689.94;;;0.20;81.16
63554;BME280;49699;48.072;7.800;2023-03-16T03:54:36;99687.44;;;0.17;81.09
63554;BME280;49699;48.072;7.800;2023-03-16T03:57:10;99684.88;;;0.17;81.12
63554;BME280;49699;48.072;7.800;2023-03-16T03:59:36;99688.22;;;0.19;81.13
63554;BME280;49699;48.072;7.800;2023-03-16T04:02:27;99684.03;;;0.15;81.04
63554;BME280;49699;48.072;7.800;2023-03-16T04:04:53;99684.09;;;0.11;80.94
63554;BME280;49699;48.072;7.800;2023-03-16T04:07:19;99685.81;;;0.09;81.32
63554;BME280;49699;48.072;7.800;2023-03-16T04:09:45;99692.66;;;0.07;81.29
63554;BME280;49699;48.072;7.800;2023-03-16T04:12:32;99696.91;;;0.06;81.44
63554;BME280;49699;48.072;7.800;2023-03-16T04:14:57;99700.31;;;0.07;81.33
63554;BME280;49699;48.072;7.800;2023-03-16T04:17:25;99699.47;;;0.08;81.43
63554;BME280;49699;48.072;7.800;2023-03-16T04:19:52;99692.63;;;0.10;81.08
63554;BME280;49699;48.072;7.800;2023-03-16T04:22:17;99698.59;;;0.10;81.17
63554;BME280;49699;48.072;7.800;2023-03-16T04:24:44;99690.91;;;0.10;81.07
63554;BME280;49699;48.072;7.800;2023-03-16T04:27:11;99693.50;;;0.09;81.27
63554;BME280;49699;48.072;7.800;2023-03-16T04:29:37;99695.25;;;0.04;81.14
63554;BME280;49699;48.072;7.800;2023-03-16T04:32:03;99691.06;;;-0.02;81.38
63554;BME280;49699;48.072;7.800;2023-03-16T04:34:30;99691.09;;;-0.07;81.53
63554;BME280;49699;48.072;7.800;2023-03-16T04:36:59;99682.56;;;-0.07;81.51
63554;BME280;49699;48.072;7.800;2023-03-16T04:39:24;99686.00;;;-0.08;81.82
63554;BME280;49699;48.072;7.800;2023-03-16T04:41:50;99686.81;;;-0.05;81.37
63554;BME280;49699;48.072;7.800;2023-03-16T04:44:19;99683.41;;;-0.04;81.54
63554;BME280;49699;48.072;7.800;2023-03-16T04:46:45;99681.69;;;-0.03;81.39
63554;BME280;49699;48.072;7.800;2023-03-16T04:49:11;99682.53;;;-0.03;81.26
63554;BME280;49699;48.072;7.800;2023-03-16T04:51:38;99676.56;;;-0.03;81.40
63554;BME280;49699;48.072;7.800;2023-03-16T04:54:11;99670.59;;;-0.02;81.42
63554;BME280;49699;48.072;7.800;2023-03-16T04:56:39;99673.97;;;0.00;81.27
63554;BME280;49699;48.072;7.800;2023-03-16T04:59:09;99670.50;;;0.03;81.37
63554;BME280;49699;48.072;7.800;2023-03-16T05:01:46;99668.81;;;0.03;81.23
63554;BME280;49699;48.072;7.800;2023-03-16T05:04:13;99667.09;;;0.04;81.10
63554;BME280;49699;48.072;7.800;2023-03-16T05:06:39;99664.56;;;0.02;81.33
63554;BME280;49699;48.072;7.800;2023-03-16T05:09:05;99661.16;;;0.02;81.31
63554;BME280;49699;48.072;7.800;2023-03-16T05:11:34;99659.44;;;0.00;81.43
63554;BME280;49699;48.072;7.800;2023-03-16T05:14:02;99658.66;;;-0.02;81.28
63554;BME280;49699;48.072;7.800;2023-03-16T05:16:29;99647.59;;;-0.05;81.59
63554;BME280;49699;48.072;7.800;2023-03-16T05:18:59;99647.63;;;-0.10;81.50
63554;BME280;49699;48.072;7.800;2023-03-16T05:21:27;99648.53;;;-0.14;81.48
63554;BME280;49699;48.072;7.800;2023-03-16T05:24:00;99643.41;;;-0.14;81.58
63554;BME280;49699;48.072;7.800;2023-03-16T05:26:25;99641.69;;;-0.12;81.73
63554;BME280;49699;48.072;7.800;2023-03-16T05:28:50;99644.25;;;-0.12;81.44
63554;BME280;49699;48.072;7.800;2023-03-16T05:31:17;99653.63;;;-0.11;81.61
63554;BME280;49699;48.072;7.800;2023-03-16T05:33:48;99651.06;;;-0.12;81.54
63554;BME280;49699;48.072;7.800;2023-03-16T05:36:16;99655.34;;;-0.13;81.43
63554;BME280;49699;48.072;7.800;2023-03-16T05:38:44;99654.50;;;-0.15;81.77
63554;BME280;49699;48.072;7.800;2023-03-16T05:41:15;99662.19;;;-0.16;81.55
63554;BME280;49699;48.072;7.800;2023-03-16T05:43:55;99662.25;;;-0.19;81.67
63554;BME280;49699;48.072;7.800;2023-03-16T05:46:24;99666.53;;;-0.21;81.99
63554;BME280;49699;48.072;7.800;2023-03-16T05:48:50;99668.28;;;-0.25;82.20
63554;BME280;49699;48.072;7.800;2023-03-16T05:51:17;99670.00;;;-0.27;82.34
63554;BME280;49699;48.072;7.800;2023-03-16T05:53:43;99670.00;;;-0.28;82.34
63554;BME280;49699;48.072;7.800;2023-03-16T05:56:19;99668.28;;;-0.25;82.14
63554;BME280;49699;48.072;7.800;2023-03-16T05:58:44;99667.38;;;-0.21;82.29
63554;BME280;49699;48.072;7.800;2023-03-16T06:01:10;99674.13;;;-0.15;81.96
63554;BME280;49699;48.072;7.800;2023-03-16T06:03:38;99671.53;;;-0.11;81.71
63554;BME280;49699;48.072;7.800;2023-03-16T06:06:05;99672.31;;;-0.04;81.49
63554;BME280;49699;48.072;7.800;2023-03-16T06:08:37;99669.66;;;0.02;81.48
63554;BME280;49699;48.072;7.800;2023-03-16T06:11:08;99673.00;;;0.09;81.28
63554;BME280;49699;48.072;7.800;2023-03-16T06:13:34;99669.53;;;0.14;80.84
63554;BME280;49699;48.072;7.800;2023-03-16T06:15:59;99674.59;;;0.19;80.90
63554;BME280;49699;48.072;7.800;2023-03-16T06:18:25;99673.69;;;0.23;81.03
63554;BME280;49699;48.072;7.800;2023-03-16T06:20:51;99676.19;;;0.27;80.70
63554;BME280;49699;48.072;7.800;2023-03-16T06:23:17;99670.16;;;0.33;80.37
63554;BME280;49699;48.072;7.800;2023-03-16T06:25:48;99669.19;;;0.42;80.66
63554;BME280;49699;48.072;7.800;2023-03-16T06:28:14;99672.50;;;0.50;80.20
63554;BME280;49699;48.072;7.800;2023-03-16T06:30:40;99681.78;;;0.57;79.93
63554;BME280;49699;48.072;7.800;2023-03-16T06:33:05;99680.03;;;0.60;79.85
63554;BME280;49699;48.072;7.800;2023-03-16T06:35:30;99679.94;;;0.68;79.85
63554;BME280;49699;48.072;7.800;2023-03-16T06:38:10;99690.88;;;0.81;79.58
63554;BME280;49699;48.072;7.800;2023-03-16T06:40:49;99690.69;;;0.93;79.04
63554;BME280;49699;48.072;7.800;2023-03-16T06:43:15;99681.91;;;1.08;78.73
63554;BME280;49699;48.072;7.800;2023-03-16T06:45:42;99681.69;;;1.23;78.52
63554;BME280;49699;48.072;7.800;2023-03-16T06:48:07;99689.13;;;1.38;77.91
63554;BME280;49699;48.072;7.800;2023-03-16T06:50:34;99694.91;;;1.49;77.63
63554;BME280;49699;48.072;7.800;2023-03-16T06:52:59;99695.59;;;1.60;77.36
63554;BME280;49699;48.072;7.800;2023-03-16T06:55:27;99694.59;;;1.69;77.14
63554;BME280;49699;48.072;7.800;2023-03-16T06:57:53;99697.03;;;1.77;76.76
63554;BME280;49699;48.072;7.800;2023-03-16T07:00:18;99684.84;;;1.86;76.74
63554;BME280;49699;48.072;7.800;2023-03-16T07:02:44;99675.28;;;1.96;76.26
63554;BME280;49699;48.072;7.800;2023-03-16T07:05:11;99667.38;;;2.05;76.05
63554;BME280;49699;48.072;7.800;2023-03-16T07:07:40;99660.38;;;2.15;75.93
63554;BME280;49699;48.072;7.800;2023-03-16T07:10:10;99659.28;;;2.26;75.96
63554;BME280;49699;48.072;7.800;2023-03-16T07:12:36;99658.16;;;2.38;75.30
63554;BME280;49699;48.072;7.800;2023-03-16T07:15:01;99645.84;;;2.52;74.76
63554;BME280;49699;48.072;7.800;2023-03-16T07:17:28;99648.97;;;2.68;74.44
63554;BME280;49699;48.072;7.800;2023-03-16T07:19:53;99637.53;;;2.81;73.95
63554;BME280;49699;48.072;7.800;2023-03-16T07:22:18;99624.47;;;2.89;73.70
63554;BME280;49699;48.072;7.800;2023-03-16T07:24:44;99621.84;;;2.92;73.38
63554;BME280;49699;48.072;7.800;2023-03-16T07:27:09;99623.53;;;2.93;73.62
63554;BME280;49699;48.072;7.800;2023-03-16T07:29:34;99629.44;;;2.96;73.31
63554;BME280;49699;48.072;7.800;2023-03-16T07:32:02;99625.09;;;3.00;73.50
63554;BME280;49699;48.072;7.800;2023-03-16T07:34:34;99606.16;;;3.02;73.07
63554;BME280;49699;48.072;7.800;2023-03-16T07:37:00;99595.78;;;3.05;73.16
63554;BME280;49699;48.072;7.800;2023-03-16T07:39:29;99597.13;;;3.22;72.61
63554;BME280;49699;48.072;7.800;2023-03-16T07:42:02;99602.44;;;3.48;72.00
63554;BME280;49699;48.072;7.800;2023-03-16T07:44:43;99612.00;;;3.75;70.94
63554;BME280;49699;48.072;7.800;2023-03-16T07:47:13;99622.44;;;4.00;70.25
63554;BME280;49699;48.072;7.800;2023-03-16T07:49:40;99635.63;;;4.21;69.63
63554;BME280;49699;48.072;7.800;2023-03-16T07:52:06;99628.72;;;4.21;69.66
63554;BME280;49699;48.072;7.800;2023-03-16T07:54:37;99616.66;;;4.23;69.58
63554;BME280;49699;48.072;7.800;2023-03-16T07:57:04;99616.56;;;4.26;69.28
63554;BME280;49699;48.072;7.800;2023-03-16T07:59:56;99611.94;;;4.37;68.75
63554;BME280;49699;48.072;7.800;2023-03-16T08:02:22;99611.84;;;4.40;68.41
63554;BME280;49699;48.072;7.800;2023-03-16T08:04:48;99595.38;;;4.46;68.75
63554;BME280;49699;48.072;7.800;2023-03-16T08:07:14;99592.22;;;4.64;68.47
63554;BME280;49699;48.072;7.800;2023-03-16T08:10:00;99607.97;;;4.83;67.91
63554;BME280;49699;48.072;7.800;2023-03-16T08:12:31;99614.50;;;4.93;67.20
63554;BME280;49699;48.072;7.800;2023-03-16T08:14:58;99609.75;;;5.07;67.10
63554;BME280;49699;48.072;7.800;2023-03-16T08:17:26;99614.44;;;5.21;66.58
63554;BME280;49699;48.072;7.800;2023-03-16T08:19:53;99616.84;;;5.27;66.50
63554;BME280;49699;48.072;7.800;2023-03-16T08:22:19;99610.22;;;5.45;66.08
63554;BME280;49699;48.072;7.800;2023-03-16T08:24:45;99607.59;;;5.71;65.78
63554;BME280;49699;48.072;7.800;2023-03-16T08:27:12;99606.63;;;5.99;64.81
63554;BME280;49699;48.072;7.800;2023-03-16T08:29:43;99605.16;;;6.15;64.28
63554;BME280;49699;48.072;7.800;2023-03-16T08:32:12;99608.53;;;6.40;63.68
63554;BME280;49699;48.072;7.800;2023-03-16T08:34:41;99608.84;;;6.54;62.77
63554;BME280;49699;48.072;7.800;2023-03-16T08:37:07;99610.16;;;6.65;62.28
63554;BME280;49699;48.072;7.800;2023-03-16T08:40:00;99614.22;;;6.72;61.75
63554;BME280;49699;48.072;7.800;2023-03-16T08:42:27;99611.34;;;6.79;61.75
63554;BME280;49699;48.072;7.800;2023-03-16T08:44:56;99608.53;;;6.84;61.97
63554;BME280;49699;48.072;7.800;2023-03-16T08:47:25;99611.25;;;7.03;61.58
63554;BME280;49699;48.072;7.800;2023-03-16T08:49:50;99596.47;;;7.26;60.97
63554;BME280;49699;48.072;7.800;2023-03-16T08:52:17;99585.16;;;7.49;60.24
63554;BME280;49699;48.072;7.800;2023-03-16T08:54:42;99580.16;;;7.65;59.95
63554;BME280;49699;48.072;7.800;2023-03-16T08:57:08;99585.91;;;7.90;59.11
63554;BME280;49699;48.072;7.800;2023-03-16T08:59:34;99589.53;;;8.25;58.60
63554;BME280;49699;48.072;7.800;2023-03-16T09:02:00;99582.72;;;8.60;57.75
63554;BME280;49699;48.072;7.800;2023-03-16T09:04:26;99580.97;;;8.97;56.13
63554;BME280;49699;48.072;7.800;2023-03-16T09:06:52;99559.63;;;9.26;55.62
63554;BME280;49699;48.072;7.800;2023-03-16T09:09:18;99552.09;;;9.55;54.88
63554;BME280;49699;48.072;7.800;2023-03-16T09:11:43;99550.22;;;9.74;54.73
63554;BME280;49699;48.072;7.800;2023-03-16T09:14:09;99550.47;;;10.02;53.92
63554;BME280;49699;48.072;7.800;2023-03-16T09:16:35;99548.31;;;10.26;52.88
63554;BME280;49699;48.072;7.800;2023-03-16T09:19:02;99547.75;;;10.37;52.61
63554;BME280;49699;48.072;7.800;2023-03-16T09:21:27;99550.41;;;10.51;51.88
63554;BME280;49699;48.072;7.800;2023-03-16T09:23:53;99538.72;;;10.58;51.72
63554;BME280;49699;48.072;7.800;2023-03-16T09:26:20;99523.19;;;10.72;51.05
63554;BME280;49699;48.072;7.800;2023-03-16T09:28:45;99527.34;;;10.75;50.59
63554;BME280;49699;48.072;7.800;2023-03-16T09:31:17;99525.97;;;10.69;50.16
63554;BME280;49699;48.072;7.800;2023-03-16T09:33:43;99529.75;;;10.64;50.69
63554;BME280;49699;48.072;7.800;2023-03-16T09:36:09;99521.91;;;10.79;50.47
63554;BME280;49699;48.072;7.800;2023-03-16T09:38:37;99529.06;;;11.06;49.65
63554;BME280;49699;48.072;7.800;2023-03-16T09:41:07;99531.78;;;11.19;48.36
63554;BME280;49699;48.072;7.800;2023-03-16T09:46:26;99535.28;;;11.03;46.69
63554;BME280;49699;48.072;7.800;2023-03-16T09:48:53;99524.53;;;10.94;47.30
63554;BME280;49699;48.072;7.800;2023-03-16T09:51:24;99531.88;;;10.87;46.77
63554;BME280;49699;48.072;7.800;2023-03-16T09:53:57;99525.22;;;10.67;47.33
63554;BME280;49699;48.072;7.800;2023-03-16T09:56:29;99521.88;;;10.50;47.56
63554;BME280;49699;48.072;7.800;2023-03-16T09:58:57;99520.59;;;10.41;47.47
63554;BME280;49699;48.072;7.800;2023-03-16T10:04:08;99510.34;;;10.69;45.97
63554;BME280;49699;48.072;7.800;2023-03-16T10:06:37;99506.91;;;10.99;45.46
63554;BME280;49699;48.072;7.800;2023-03-16T10:09:16;99496.25;;;11.32;45.23
63554;BME280;49699;48.072;7.800;2023-03-16T10:11:44;99489.56;;;11.56;44.93
63554;BME280;49699;48.072;7.800;2023-03-16T10:16:44;99490.06;;;11.63;45.27
63554;BME280;49699;48.072;7.800;2023-03-16T10:19:21;99502.44;;;11.59;45.56
63554;BME280;49699;48.072;7.800;2023-03-16T10:21:47;99500.66;;;11.60;45.35
63554;BME280;49699;48.072;7.800;2023-03-16T10:24:20;99492.53;;;11.50;45.45
63554;BME280;49699;48.072;7.800;2023-03-16T10:26:52;99500.53;;;11.33;45.49
63554;BME280;49699;48.072;7.800;2023-03-16T10:29:18;99495.13;;;11.22;45.38
63554;BME280;49699;48.072;7.800;2023-03-16T10:31:44;99487.50;;;11.19;45.33
63554;BME280;49699;48.072;7.800;2023-03-16T10:34:09;99482.03;;;11.37;44.94
63554;BME280;49699;48.072;7.800;2023-03-16T10:36:37;99481.31;;;11.78;44.29
63554;BME280;49699;48.072;7.800;2023-03-16T10:39:04;99475.50;;;12.01;43.38
63554;BME280;49699;48.072;7.800;2023-03-16T10:41:32;99471.63;;;12.21;43.00
63554;BME280;49699;48.072;7.800;2023-03-16T10:44:11;99478.25;;;12.54;42.43
63554;BME280;49699;48.072;7.800;2023-03-16T10:46:40;99466.28;;;12.76;42.11
63554;BME280;49699;48.072;7.800;2023-03-16T10:51:57;99481.06;;;13.03;41.74
63554;BME280;49699;48.072;7.800;2023-03-16T10:54:28;99479.88;;;13.21;41.66
63554;BME280;49699;48.072;7.800;2023-03-16T10:56:55;99486.47;;;13.39;41.18
63554;BME280;49699;48.072;7.800;2023-03-16T10:59:33;99488.34;;;13.37;41.32
63554;BME280;49699;48.072;7.800;2023-03-16T11:02:13;99484.16;;;13.22;41.62
63554;BME280;49699;48.072;7.800;2023-03-16T11:04:39;99469.59;;;13.31;41.78
63554;BME280;49699;48.072;7.800;2023-03-16T11:07:05;99467.53;;;13.61;41.45
63554;BME280;49699;48.072;7.800;2023-03-16T11:09:33;99461.72;;;13.81;41.10
63554;BME280;49699;48.072;7.800;2023-03-16T11:11:59;99459.66;;;14.10;40.78
63554;BME280;49699;48.072;7.800;2023-03-16T11:14:26;99454.41;;;14.34;40.35
63554;BME280;49699;48.072;7.800;2023-03-16T11:16:55;99455.88;;;14.51;40.05
63554;BME280;49699;48.072;7.800;2023-03-16T11:19:24;99460.53;;;14.58;39.78
63554;BME280;49699;48.072;7.800;2023-03-16T11:22:01;99456.09;;;14.48;39.69
63554;BME280;49699;48.072;7.800;2023-03-16T11:27:00;99456.66;;;14.51;39.28
63554;BME280;49699;48.072;7.800;2023-03-16T11:29:31;99455.78;;;14.64;39.33
63554;BME280;49699;48.072;7.800;2023-03-16T11:32:03;99458.28;;;14.65;39.23
63554;BME280;49699;48.072;7.800;2023-03-16T11:34:30;99461.38;;;14.70;39.38
63554;BME280;49699;48.072;7.800;2023-03-16T11:37:03;99436.41;;;14.77;39.02
63554;BME280;49699;48.072;7.800;2023-03-16T11:39:45;99441.22;;;14.83;38.76
63554;BME280;49699;48.072;7.800;2023-03-16T11:52:10;99425.53;;;15.17;38.59
63554;BME280;49699;48.072;7.800;2023-03-16T11:54:49;99421.47;;;15.24;38.19
63554;BME280;49699;48.072;7.800;2023-03-16T11:57:29;99423.41;;;15.33;37.72
63554;BME280;49699;48.072;7.800;2023-03-16T12:12:52;99405.59;;;16.36;35.45
63554;BME280;49699;48.072;7.800;2023-03-16T12:15:22;99404.34;;;16.19;35.65
63554;BME280;49699;48.072;7.800;2023-03-16T12:17:55;99401.00;;;16.28;35.72
63554;BME280;49699;48.072;7.800;2023-03-16T12:20:30;99393.31;;;16.57;35.16
63554;BME280;49699;48.072;7.800;2023-03-16T12:23:12;99389.97;;;16.87;34.47
63554;BME280;49699;48.072;7.800;2023-03-16T12:25:39;99394.44;;;16.96;34.11
63554;BME280;49699;48.072;7.800;2023-03-16T12:28:13;99397.47;;;16.91;33.40
63554;BME280;49699;48.072;7.800;2023-03-16T12:35:45;99383.63;;;16.89;33.83
63554;BME280;49699;48.072;7.800;2023-03-16T12:38:29;99382.44;;;17.03;33.85
63554;BME280;49699;48.072;7.800;2023-03-16T12:48:37;99375.97;;;16.45;34.00
63554;BME280;49699;48.072;7.800;2023-03-16T12:51:04;99363.09;;;16.42;34.17
63554;BME280;49699;48.072;7.800;2023-03-16T12:56:18;99371.81;;;16.10;34.78
63554;BME280;49699;48.072;7.800;2023-03-16T12:58:45;99365.75;;;15.98;34.96
63554;BME280;49699;48.072;7.800;2023-03-16T13:01:11;99368.06;;;15.92;35.18
63554;BME280;49699;48.072;7.800;2023-03-16T13:03:40;99366.69;;;16.09;35.00
63554;BME280;49699;48.072;7.800;2023-03-16T13:06:06;99361.88;;;16.14;34.77
63554;BME280;49699;48.072;7.800;2023-03-16T13:08:41;99360.47;;;16.10;34.93
63554;BME280;49699;48.072;7.800;2023-03-16T13:11:11;99349.38;;;16.06;34.97
63554;BME280;49699;48.072;7.800;2023-03-16T13:18:51;99338.97;;;16.37;34.51
63554;BME280;49699;48.072;7.800;2023-03-16T13:21:21;99329.06;;;16.40;34.48
63554;BME280;49699;48.072;7.800;2023-03-16T13:26:38;99326.63;;;16.27;34.27
63554;BME280;49699;48.072;7.800;2023-03-16T13:29:06;99323.00;;;16.08;34.34
63554;BME280;49699;48.072;7.800;2023-03-16T13:31:39;99320.16;;;16.00;34.67
63554;BME280;49699;48.072;7.800;2023-03-16T13:34:06;99321.84;;;16.01;34.72
63554;BME280;49699;48.072;7.800;2023-03-16T13:36:36;99314.66;;;16.03;34.91
63554;BME280;49699;48.072;7.800;2023-03-16T13:39:15;99307.25;;;16.08;34.79
63554;BME280;49699;48.072;7.800;2023-03-16T13:41:52;99309.91;;;16.28;34.55
63554;BME280;49699;48.072;7.800;2023-03-16T13:44:18;99310.47;;;16.53;34.23
63554;BME280;49699;48.072;7.800;2023-03-16T13:46:46;99304.22;;;16.65;34.10
63554;BME280;49699;48.072;7.800;2023-03-16T13:49:12;99304.16;;;16.76;33.99
63554;BME280;49699;48.072;7.800;2023-03-16T13:51:38;99308.06;;;16.82;33.84
63554;BME280;49699;48.072;7.800;2023-03-16T13:54:04;99293.88;;;16.73;33.88
63554;BME280;49699;48.072;7.800;2023-03-16T13:56:30;99294.56;;;16.65;34.17
63554;BME280;49699;48.072;7.800;2023-03-16T13:58:56;99281.84;;;16.71;34.42
63554;BME280;49699;48.072;7.800;2023-03-16T14:01:23;99282.31;;;16.85;34.16
63554;BME280;49699;48.072;7.800;2023-03-16T14:03:50;99278.22;;;16.92;33.96
63554;BME280;49699;48.072;7.800;2023-03-16T14:06:22;99269.38;;;17.03;33.77
63554;BME280;49699;48.072;7.800;2023-03-16T14:08:50;99262.31;;;17.04;33.89
63554;BME280;49699;48.072;7.800;2023-03-16T14:11:16;99259.28;;;16.98;33.86
63554;BME280;49699;48.072;7.800;2023-03-16T14:13:41;99265.91;;;16.93;33.87
63554;BME280;49699;48.072;7.800;2023-03-16T14:16:14;99257.00;;;16.84;34.06
63554;BME280;49699;48.072;7.800;2023-03-16T14:21:13;99261.53;;;16.73;34.38